Terminal Aerodrome Forecast
Issued by NWS Raleigh/Durham, NC

Home | Current Version | Previous Version | Text Only | Print | Product List | Glossary On
Versions: 1 2 3 4 5 6 7 8 9 10 11 12 13 14 15 16 17 18 19 20 21 22 23 24 25
000
FTUS42 KRAH 202213 AAA
TAFRDU
TAF AMD
KRDU 202213Z 2022/2118 05013G22KT P6SM BKN050 BKN250
     FM210000 05010KT P6SM SCT040 SCT200
     FM211200 02010KT P6SM SKC=

USA.gov is the U.S. government's official web portal to all federal, state and local government web resources and services.